ADDS TAF Data INFO
IDs: Format: Raw Decoded Include METARs

Data at: 1021 UTC 19 Nov 2017

KOLS 190954Z AUTO 00000KT 10SM CLR 09/M01 A3011 RMK AO2 SLP150 T00891011

KOLS 190520Z 1906/2006 06005KT P6SM SCT250
  FM192100 31006KT P6SM SKC
  FM200200 04004KT P6SM SKC